Queen Isabella — A8IE2 — position and weather

sailwx.info

Track history (hours):
 
Tides and Currents Weather Stations Pressure Air Temp Water Temp Dewpoint Dewpoint Depression Visibility Wind Speed Wind Dir Waves Ship Positions

Queen Isabella

Last reported at 2018-Apr-18 16:54 UTC. Time now 2018-Apr-20 16:45 UTC.
Position N 39°36' W 000°10'.

Length 131 m; draft 6.1 m.

Type: Tanker. MMSI: 636090959.

Date/timePositionNaut miles runAvg speedWind from/ knotsBaromVisibWave heightAir tempDewpointWater temp
2018-Apr-18 16:54N 39°36' W 000°10'  
2018-Apr-14 17:33N 35°59' W 005°13'110.6
2018-Apr-14 17:30N 35°59' W 005°14'713.4
2018-Apr-14 17:00N 35°58' W 005°22'714.8
2018-Apr-14 16:30N 35°56' W 005°31'222 9.4
2018-Apr-13 16:49N 37°46' W 009°32'411.4
2018-Apr-13 16:30N 37°50' W 009°31'711.4
2018-Apr-13 15:54N 37°57' W 009°30'511.2
2018-Apr-13 15:29N 38°01' W 009°29'2211.0
2018-Apr-13 13:26N 38°23' W 009°25'511.4
2018-Apr-13 13:00N 38°28' W 009°24'611.4
2018-Apr-13 12:31N 38°34' W 009°23'610.6
2018-Apr-13 11:58N 38°39' W 009°20'5 9.6
2018-Apr-13 11:28N 38°41' W 009°15'4 8.5
2018-Apr-13 11:00N 38°42' W 009°09'4 8.3
2018-Apr-13 10:29N 38°41' W 009°04'0 0.7
2018-Apr-13 10:00N 38°41' W 009°04'0 0.0
2018-Apr-13 09:30N 38°41' W 009°04'0 0.0
2018-Apr-13 08:57N 38°41' W 009°04'0 0.0
2018-Apr-12 12:08N 38°41' W 009°04'0 0.1
2018-Apr-12 11:59N 38°41' W 009°04'2 4.0
2018-Apr-12 11:30N 38°41' W 009°06'612.6
2018-Apr-12 11:00N 38°41' W 009°14'713.4
2018-Apr-12 10:30N 38°38' W 009°22'3 6.3
2018-Apr-12 10:00N 38°40' W 009°25'0 0.1
2018-Apr-12 09:30N 38°40' W 009°25'0 0.2
2018-Apr-12 09:00N 38°40' W 009°25'0 0.0
2018-Apr-12 08:30N 38°40' W 009°25'0 0.0
2018-Apr-12 07:48N 38°40' W 009°25'0 0.0
2018-Apr-12 07:21N 38°40' W 009°25'0 0.0
2018-Apr-12 07:00N 38°40' W 009°25'0 0.2
2018-Apr-12 06:30N 38°40' W 009°25'0 0.0
2018-Apr-12 05:57N 38°40' W 009°25'0 0.1
2018-Apr-12 05:30N 38°40' W 009°25'0 0.0
2018-Apr-12 05:00N 38°40' W 009°25'0 0.0
2018-Apr-12 04:30N 38°40' W 009°25'0 0.0
2018-Apr-12 04:00N 38°40' W 009°25'0 0.0
2018-Apr-12 03:27N 38°40' W 009°25'0 0.0
2018-Apr-12 02:51N 38°40' W 009°25'0 0.0
2018-Apr-12 02:24N 38°40' W 009°25'0 0.0
2018-Apr-12 01:57N 38°40' W 009°25'0 0.0
2018-Apr-12 01:30N 38°40' W 009°25'0 0.0
2018-Apr-12 00:48N 38°40' W 009°25'0 0.0
2018-Apr-12 00:18N 38°40' W 009°25'0 0.0
2018-Apr-12 00:00N 38°40' W 009°25'0 0.0
2018-Apr-11 23:27N 38°40' W 009°25'0 0.0
2018-Apr-11 23:00N 38°40' W 009°25'3 5.9
2018-Apr-11 22:30N 38°37' W 009°25'612.0
2018-Apr-11 22:00N 38°31' W 009°24'611.5
2018-Apr-11 21:30N 38°25' W 009°24'611.4
2018-Apr-11 21:00N 38°19' W 009°25'611.4
2018-Apr-11 20:30N 38°14' W 009°25'611.1
2018-Apr-11 20:00N 38°08' W 009°25'611.2
2018-Apr-11 19:27N 38°02' W 009°25'510.9
2018-Apr-11 19:00N 37°57' W 009°25'811.1
2018-Apr-11 18:17N 37°49' W 009°25'310.9
2018-Apr-11 18:00N 37°46' W 009°25'216 7.7
2018-Apr-10 13:51N 35°59' W 005°30'3 9.0
2018-Apr-10 13:30N 35°60' W 005°27'5 9.5
2018-Apr-10 13:00N 36°01' W 005°21'  
Track history (hours):
 
Tides and Currents Weather Stations Pressure Air Temp Water Temp Dewpoint Dewpoint Depression Visibility Wind Speed Wind Dir Waves Ship Positions

Queen Isabella

Last reported at 2018-Apr-18 16:54 UTC. Time now 2018-Apr-20 16:45 UTC.
Position N 39°36' W 000°10'.

Length 131 m; draft 6.1 m.

Type: Tanker. MMSI: 636090959.

Date/timePositionNaut miles runAvg speedWind from/ knotsBaromVisibWave heightAir tempDewpointWater temp
2018-Apr-18 16:54N 39°36' W 000°10'  
2018-Apr-14 17:33N 35°59' W 005°13'110.6
2018-Apr-14 17:30N 35°59' W 005°14'713.4
2018-Apr-14 17:00N 35°58' W 005°22'714.8
2018-Apr-14 16:30N 35°56' W 005°31'222 9.4
2018-Apr-13 16:49N 37°46' W 009°32'411.4
2018-Apr-13 16:30N 37°50' W 009°31'711.4
2018-Apr-13 15:54N 37°57' W 009°30'511.2
2018-Apr-13 15:29N 38°01' W 009°29'2211.0
2018-Apr-13 13:26N 38°23' W 009°25'511.4
2018-Apr-13 13:00N 38°28' W 009°24'611.4
2018-Apr-13 12:31N 38°34' W 009°23'610.6
2018-Apr-13 11:58N 38°39' W 009°20'5 9.6
2018-Apr-13 11:28N 38°41' W 009°15'4 8.5
2018-Apr-13 11:00N 38°42' W 009°09'4 8.3
2018-Apr-13 10:29N 38°41' W 009°04'0 0.7
2018-Apr-13 10:00N 38°41' W 009°04'0 0.0
2018-Apr-13 09:30N 38°41' W 009°04'0 0.0
2018-Apr-13 08:57N 38°41' W 009°04'0 0.0
2018-Apr-12 12:08N 38°41' W 009°04'0 0.1
2018-Apr-12 11:59N 38°41' W 009°04'2 4.0
2018-Apr-12 11:30N 38°41' W 009°06'612.6
2018-Apr-12 11:00N 38°41' W 009°14'713.4
2018-Apr-12 10:30N 38°38' W 009°22'3 6.3
2018-Apr-12 10:00N 38°40' W 009°25'0 0.1
2018-Apr-12 09:30N 38°40' W 009°25'0 0.2
2018-Apr-12 09:00N 38°40' W 009°25'0 0.0
2018-Apr-12 08:30N 38°40' W 009°25'0 0.0
2018-Apr-12 07:48N 38°40' W 009°25'0 0.0
2018-Apr-12 07:21N 38°40' W 009°25'0 0.0
2018-Apr-12 07:00N 38°40' W 009°25'0 0.2
2018-Apr-12 06:30N 38°40' W 009°25'0 0.0
2018-Apr-12 05:57N 38°40' W 009°25'0 0.1
2018-Apr-12 05:30N 38°40' W 009°25'0 0.0
2018-Apr-12 05:00N 38°40' W 009°25'0 0.0
2018-Apr-12 04:30N 38°40' W 009°25'0 0.0
2018-Apr-12 04:00N 38°40' W 009°25'0 0.0
2018-Apr-12 03:27N 38°40' W 009°25'0 0.0
2018-Apr-12 02:51N 38°40' W 009°25'0 0.0
2018-Apr-12 02:24N 38°40' W 009°25'0 0.0
2018-Apr-12 01:57N 38°40' W 009°25'0 0.0
2018-Apr-12 01:30N 38°40' W 009°25'0 0.0
2018-Apr-12 00:48N 38°40' W 009°25'0 0.0
2018-Apr-12 00:18N 38°40' W 009°25'0 0.0
2018-Apr-12 00:00N 38°40' W 009°25'0 0.0
2018-Apr-11 23:27N 38°40' W 009°25'0 0.0
2018-Apr-11 23:00N 38°40' W 009°25'3 5.9
2018-Apr-11 22:30N 38°37' W 009°25'612.0
2018-Apr-11 22:00N 38°31' W 009°24'611.5
2018-Apr-11 21:30N 38°25' W 009°24'611.4
2018-Apr-11 21:00N 38°19' W 009°25'611.4
2018-Apr-11 20:30N 38°14' W 009°25'611.1
2018-Apr-11 20:00N 38°08' W 009°25'611.2
2018-Apr-11 19:27N 38°02' W 009°25'510.9
2018-Apr-11 19:00N 37°57' W 009°25'811.1
2018-Apr-11 18:17N 37°49' W 009°25'310.9
2018-Apr-11 18:00N 37°46' W 009°25'216 7.7
2018-Apr-10 13:51N 35°59' W 005°30'3 9.0
2018-Apr-10 13:30N 35°60' W 005°27'5 9.5
2018-Apr-10 13:00N 36°01' W 005°21'  

Dump ship's entire track history